Forside
METAR-TAF:

METAR-TAF

Lufthavne :

Prague, Tjekkiet

Breddekreds: 50-12-59N, længdekreds: 014-23-42E, højde: 280 m

Aktuelle vejr

Denne rapport blev lavet for 23 timer og 54 minutter siden, kl. 08:00 UTC
Vind 7 kt fra nordnordvest
Temperatur 17°C
Fugtighed 63%
Tryk 1029 hPa
Sigt 10 km eller mere
ingen skyer under 1500m og ingen cumulonimbus

METAR: LKVO 130800Z 33007KT CAVOK 17/10 Q1029

Tid: 09:54 (07:54 UTC)


TAF: fraværende

Vejrobservationer og prognoser fra mere end 4000 lufthavne (METAR og TAF).

De gule og røde prikker repræsenterer de meteorologiske stationer.

Flyt musen over at se navnet på stationen.

Så klik over at se vejr observationer og prognoser.

At skifte det kort: Klik på de grønne knapper med et sort kors for at zoome ind; på den grønne knap med en bindestreg for at zoome ud; eller på de grønne pile for tilstødende kort.


METAR-TAF: